createdAt,value
2023-03-18T00:01:52.087Z,94.80
2023-03-18T00:04:19.192Z,91.10
2023-03-18T00:06:45.737Z,95.80
2023-03-18T00:09:13.484Z,90.40
2023-03-18T00:11:40.604Z,93.50
2023-03-18T00:14:08.655Z,91.00
2023-03-18T00:16:36.773Z,96.80
2023-03-18T00:19:04.455Z,93.80
2023-03-18T00:21:31.678Z,37.20
2023-03-18T00:23:58.757Z,99.90
2023-03-18T00:26:26.113Z,99.90
2023-03-18T00:28:53.324Z,99.90
2023-03-18T00:31:19.987Z,99.90
2023-03-18T00:33:46.839Z,99.90
2023-03-18T00:36:14.012Z,99.90
2023-03-18T00:38:42.228Z,99.90
2023-03-18T00:41:11.917Z,86.60
2023-03-18T00:43:46.102Z,90.30
2023-03-18T00:46:13.826Z,87.30
2023-03-18T00:48:40.448Z,99.90
2023-03-18T00:51:07.012Z,99.90
2023-03-18T00:53:33.637Z,99.90
2023-03-18T00:56:00.441Z,99.90
2023-03-18T00:58:26.970Z,97.30
2023-03-18T01:00:53.549Z,99.90
2023-03-18T01:03:20.285Z,99.90
2023-03-18T01:05:46.798Z,90.10
2023-03-18T01:08:13.353Z,99.90
2023-03-18T01:10:40.033Z,99.90
2023-03-18T01:13:06.540Z,99.90
2023-03-18T01:15:33.064Z,99.90
2023-03-18T01:17:59.648Z,99.90
2023-03-18T01:20:26.467Z,96.30
2023-03-18T01:22:53.101Z,99.90
2023-03-18T01:25:20.326Z,99.90
2023-03-18T01:27:46.832Z,98.40
2023-03-18T01:30:13.914Z,99.90
2023-03-18T01:32:41.563Z,99.00
2023-03-18T01:35:08.343Z,99.90
2023-03-18T01:37:34.850Z,99.90
2023-03-18T01:40:01.416Z,99.90
2023-03-18T01:42:27.976Z,99.90
2023-03-18T01:45:17.440Z,99.30
2023-03-18T01:47:47.059Z,96.10
2023-03-18T01:50:14.640Z,85.00
2023-03-18T01:52:41.924Z,99.90
2023-03-18T01:55:11.303Z,99.00
2023-03-18T01:57:38.289Z,99.90
2023-03-18T02:00:05.989Z,98.30
2023-03-18T02:02:32.856Z,93.80
2023-03-18T02:05:02.466Z,90.10
2023-03-18T02:07:34.239Z,91.90
2023-03-18T02:10:03.505Z,97.40
2023-03-18T02:12:33.362Z,99.90
2023-03-18T02:15:01.965Z,75.40
2023-03-18T02:17:34.214Z,22.10
2023-03-18T02:20:27.657Z,22.30
2023-03-18T02:22:58.886Z,31.80
2023-03-18T02:25:32.097Z,34.10
2023-03-18T02:28:03.405Z,50.50
2023-03-18T02:30:45.878Z,50.60
2023-03-18T02:33:14.024Z,52.30
2023-03-18T02:35:42.577Z,49.80
2023-03-18T02:38:09.119Z,58.10
2023-03-18T02:40:37.893Z,39.80
2023-03-18T02:43:22.784Z,37.30
2023-03-18T02:45:52.312Z,95.00
2023-03-18T02:48:20.097Z,93.80
2023-03-18T02:50:48.492Z,23.70
2023-03-18T02:53:15.320Z,31.00
2023-03-18T02:55:42.534Z,25.30
2023-03-18T02:58:09.317Z,34.80
2023-03-18T03:00:36.136Z,46.50
2023-03-18T03:03:04.042Z,35.70
2023-03-18T03:05:31.185Z,54.00
2023-03-18T03:07:57.732Z,58.70
2023-03-18T03:10:24.414Z,84.70
2023-03-18T03:12:51.530Z,44.30
2023-03-18T03:15:18.119Z,61.70
2023-03-18T03:17:44.764Z,54.80
2023-03-18T03:20:11.679Z,78.70
2023-03-18T03:22:38.681Z,81.00
2023-03-18T03:25:05.734Z,44.20
2023-03-18T03:27:32.865Z,52.50
2023-03-18T03:29:59.426Z,63.50
2023-03-18T03:32:25.992Z,78.70
2023-03-18T03:34:52.498Z,99.60
2023-03-18T03:37:19.036Z,99.30
2023-03-18T03:39:45.588Z,99.90
2023-03-18T03:42:12.108Z,99.90
2023-03-18T03:44:38.676Z,98.50
2023-03-18T03:47:05.261Z,99.90
2023-03-18T03:49:32.093Z,99.90
2023-03-18T03:51:58.744Z,99.90
2023-03-18T03:54:25.767Z,99.90
2023-03-18T03:56:53.134Z,99.90
2023-03-18T03:59:19.750Z,99.90
2023-03-18T04:01:46.855Z,99.90
2023-03-18T04:04:13.458Z,99.90
2023-03-18T04:06:40.057Z,99.90
2023-03-18T04:09:06.592Z,97.90
2023-03-18T04:11:33.137Z,97.90
2023-03-18T04:13:59.660Z,97.00
2023-03-18T04:16:26.522Z,79.60
2023-03-18T04:18:53.063Z,99.90
2023-03-18T04:21:19.616Z,96.80
2023-03-18T04:23:46.363Z,99.90
2023-03-18T04:26:13.062Z,99.90
2023-03-18T04:28:40.346Z,99.90
2023-03-18T04:31:07.479Z,99.90
2023-03-18T04:33:34.240Z,99.90
2023-03-18T04:36:00.894Z,99.90
2023-03-18T04:38:28.428Z,99.90
2023-03-18T04:40:56.831Z,99.90
2023-03-18T04:43:23.368Z,99.90
2023-03-18T04:45:50.132Z,99.90
2023-03-18T04:48:16.641Z,99.90
2023-03-18T04:50:43.653Z,99.90
2023-03-18T04:53:10.229Z,99.90
2023-03-18T04:55:36.970Z,99.90
2023-03-18T04:58:04.548Z,99.90
2023-03-18T05:00:31.141Z,99.90
2023-03-18T05:02:57.832Z,99.90
2023-03-18T05:05:25.110Z,99.90
2023-03-18T05:07:52.063Z,99.90
2023-03-18T05:10:19.214Z,99.90
2023-03-18T05:12:45.782Z,99.90
2023-03-18T05:15:14.348Z,99.90
2023-03-18T05:17:40.926Z,99.90
2023-03-18T05:20:08.338Z,99.90
2023-03-18T05:22:34.983Z,99.90
2023-03-18T05:25:02.249Z,99.90
2023-03-18T05:27:29.803Z,99.90
2023-03-18T05:29:56.941Z,99.90
2023-03-18T05:32:23.939Z,99.90
2023-03-18T05:34:50.678Z,99.90
2023-03-18T05:37:17.272Z,99.90
2023-03-18T05:39:44.994Z,99.90
2023-03-18T05:42:12.522Z,99.90
2023-03-18T05:44:40.322Z,99.90
2023-03-18T05:47:07.361Z,99.90
2023-03-18T05:49:34.024Z,99.90
2023-03-18T05:52:01.189Z,99.90
2023-03-18T05:54:28.268Z,99.90
2023-03-18T05:56:55.576Z,99.90
2023-03-18T05:59:23.792Z,99.90
2023-03-18T06:01:50.418Z,99.90
2023-03-18T06:04:19.080Z,99.90
2023-03-18T06:06:45.779Z,99.90
2023-03-18T06:09:13.060Z,99.90
2023-03-18T06:11:40.191Z,99.90
2023-03-18T06:14:08.045Z,99.90
2023-03-18T06:16:35.119Z,99.90
2023-03-18T06:19:02.403Z,99.90
2023-03-18T06:21:29.262Z,99.90
2023-03-18T06:23:56.529Z,99.90
2023-03-18T06:26:23.108Z,99.90
2023-03-18T06:28:49.789Z,99.90
2023-03-18T06:31:17.013Z,99.90
2023-03-18T06:33:43.562Z,99.90
2023-03-18T06:36:11.049Z,99.90
2023-03-18T06:38:38.070Z,99.90
2023-03-18T06:41:04.680Z,99.90
2023-03-18T06:43:31.824Z,99.90
2023-03-18T06:45:59.490Z,99.90
2023-03-18T06:48:26.238Z,99.90
2023-03-18T06:50:54.312Z,99.90
2023-03-18T06:53:21.078Z,99.90
2023-03-18T06:55:48.476Z,98.60
2023-03-18T06:58:15.535Z,99.90
2023-03-18T07:00:42.936Z,85.70
2023-03-18T07:03:09.518Z,95.90
2023-03-18T07:05:36.100Z,99.90
2023-03-18T07:08:02.937Z,99.90
2023-03-18T07:10:29.937Z,98.70
2023-03-18T07:12:57.130Z,99.90
2023-03-18T07:15:23.898Z,99.90
2023-03-18T07:17:50.548Z,99.90
2023-03-18T07:20:17.259Z,99.90
2023-03-18T07:22:45.247Z,96.90
2023-03-18T07:25:11.776Z,99.90
2023-03-18T07:27:38.598Z,99.90
2023-03-18T07:30:05.567Z,98.70
2023-03-18T07:32:32.264Z,99.90
2023-03-18T07:34:59.156Z,99.30
2023-03-18T07:37:26.113Z,99.90
2023-03-18T07:39:53.082Z,95.20
2023-03-18T07:42:19.604Z,91.80
2023-03-18T07:44:46.192Z,87.10
2023-03-18T07:47:15.295Z,99.90
2023-03-18T07:49:41.828Z,92.10
2023-03-18T07:52:08.790Z,94.30
2023-03-18T07:54:35.547Z,93.80
2023-03-18T07:57:03.761Z,97.60
2023-03-18T07:59:30.705Z,89.10
2023-03-18T08:01:57.499Z,99.90
2023-03-18T08:04:25.201Z,99.90
2023-03-18T08:06:51.861Z,99.90
2023-03-18T08:09:18.521Z,99.90
2023-03-18T08:11:45.100Z,99.90
2023-03-18T08:14:11.762Z,99.90
2023-03-18T08:16:38.395Z,99.90
2023-03-18T08:19:04.931Z,99.90
2023-03-18T08:21:31.604Z,99.90
2023-03-18T08:23:58.137Z,99.90
2023-03-18T08:26:24.661Z,99.90
2023-03-18T08:28:51.241Z,99.90
2023-03-18T08:31:18.000Z,99.90
2023-03-18T08:33:44.530Z,99.90
2023-03-18T08:36:12.034Z,99.90
2023-03-18T08:38:39.175Z,99.90
2023-03-18T08:41:06.523Z,99.90
2023-03-18T08:43:33.052Z,99.90
2023-03-18T08:45:59.622Z,99.90
2023-03-18T08:48:26.172Z,99.90
2023-03-18T08:50:52.709Z,99.90
2023-03-18T08:53:19.537Z,99.90
2023-03-18T08:55:46.464Z,99.90
2023-03-18T08:58:13.133Z,99.90
2023-03-18T09:00:40.571Z,99.90
2023-03-18T09:03:07.661Z,99.90
2023-03-18T09:05:34.925Z,99.90
2023-03-18T09:08:01.713Z,99.90
2023-03-18T09:10:30.156Z,99.90
2023-03-18T09:12:57.366Z,99.90
2023-03-18T09:15:23.876Z,99.90
2023-03-18T09:18:08.012Z,99.90
2023-03-18T09:20:37.654Z,99.90
2023-03-18T09:23:04.668Z,99.90
2023-03-18T09:25:31.458Z,99.90
2023-03-18T09:27:58.255Z,99.90
2023-03-18T09:30:26.457Z,99.90
2023-03-18T09:32:53.885Z,99.90
2023-03-18T09:35:20.541Z,99.90
2023-03-18T09:37:47.556Z,99.90
2023-03-18T09:40:23.801Z,99.90
2023-03-18T09:43:05.618Z,99.90
2023-03-18T09:45:50.986Z,99.90
2023-03-18T09:48:31.767Z,99.90
2023-03-18T09:51:19.317Z,99.90
2023-03-18T09:53:49.747Z,99.90
2023-03-18T09:56:19.059Z,99.90
2023-03-18T09:58:53.720Z,99.90
2023-03-18T10:01:22.571Z,99.90
2023-03-18T10:03:53.931Z,99.90
2023-03-18T10:06:22.236Z,99.90
2023-03-18T10:08:52.722Z,99.90
2023-03-18T10:11:38.170Z,99.90
2023-03-18T10:14:24.709Z,99.90
2023-03-18T10:17:03.493Z,99.90
2023-03-18T10:19:30.581Z,99.90
2023-03-18T10:22:06.634Z,99.90
2023-03-18T10:24:33.925Z,99.90
2023-03-18T10:27:21.125Z,99.90
2023-03-18T10:29:54.661Z,99.90
2023-03-18T10:32:49.439Z,99.90
2023-03-18T10:35:26.685Z,99.90
2023-03-18T10:38:00.180Z,99.90
2023-03-18T10:40:27.162Z,99.90
2023-03-18T10:42:53.906Z,99.90
2023-03-18T10:45:28.166Z,99.90
2023-03-18T10:48:05.970Z,99.90
2023-03-18T10:50:35.712Z,99.90
2023-03-18T10:53:20.420Z,99.90
2023-03-18T10:56:02.444Z,99.90
2023-03-18T10:58:29.372Z,99.90
2023-03-18T11:00:56.122Z,99.90
2023-03-18T11:03:36.155Z,99.90
2023-03-18T11:06:04.757Z,99.90
2023-03-18T11:08:39.531Z,99.90
2023-03-18T11:11:21.721Z,99.90
2023-03-18T11:13:56.015Z,99.90
2023-03-18T11:16:25.968Z,99.90
2023-03-18T11:18:52.914Z,99.90
2023-03-18T11:21:19.451Z,99.90
2023-03-18T11:24:10.770Z,99.90
2023-03-18T11:26:48.276Z,99.90
2023-03-18T11:29:20.477Z,99.90
2023-03-18T11:31:48.449Z,99.90
2023-03-18T11:34:18.827Z,99.90
2023-03-18T11:36:52.533Z,99.90
2023-03-18T11:39:19.490Z,99.90
2023-03-18T11:41:47.433Z,99.90
2023-03-18T11:44:18.490Z,99.90
2023-03-18T11:46:47.649Z,99.90
2023-03-18T11:49:16.082Z,99.90
2023-03-18T11:51:42.874Z,99.90
2023-03-18T11:54:12.214Z,99.90
2023-03-18T11:56:41.765Z,99.90
2023-03-18T11:59:13.759Z,99.90
2023-03-18T12:01:44.534Z,99.90
2023-03-18T12:04:11.791Z,99.90
2023-03-18T12:06:51.538Z,99.90
2023-03-18T12:09:23.246Z,99.90
2023-03-18T12:12:08.922Z,99.90
2023-03-18T12:14:40.689Z,99.90
2023-03-18T12:17:25.650Z,99.90
2023-03-18T12:20:11.085Z,99.90
2023-03-18T12:22:56.458Z,99.90
2023-03-18T12:25:34.504Z,99.90
2023-03-18T12:28:16.739Z,99.90
2023-03-18T12:30:43.293Z,99.90
2023-03-18T12:33:18.775Z,99.90
2023-03-18T12:35:51.537Z,99.90
2023-03-18T12:38:24.363Z,99.90
2023-03-18T12:41:05.180Z,99.90
2023-03-18T12:43:48.940Z,99.90
2023-03-18T12:46:36.530Z,99.90
2023-03-18T12:49:16.084Z,99.90
2023-03-18T12:51:50.376Z,99.90
2023-03-18T12:54:40.464Z,99.90
2023-03-18T12:57:11.601Z,99.90
2023-03-18T12:59:59.055Z,99.90
2023-03-18T13:02:44.138Z,99.90
2023-03-18T13:05:20.674Z,99.90
2023-03-18T13:07:51.890Z,99.90
2023-03-18T13:10:23.348Z,99.90
2023-03-18T13:12:52.892Z,99.90
2023-03-18T13:15:27.918Z,99.90
2023-03-18T13:17:59.921Z,99.90
2023-03-18T13:20:31.414Z,99.90
2023-03-18T13:23:13.893Z,99.90
2023-03-18T13:25:43.414Z,99.90
2023-03-18T13:28:18.977Z,99.90
2023-03-18T13:30:56.107Z,99.90
2023-03-18T13:33:41.547Z,99.90
2023-03-18T13:36:27.122Z,99.90
2023-03-18T13:38:56.707Z,99.90
2023-03-18T13:41:32.585Z,99.90
2023-03-18T13:44:09.311Z,99.90
2023-03-18T13:46:35.974Z,99.90
2023-03-18T13:49:02.823Z,99.90
2023-03-18T13:51:29.371Z,99.90
2023-03-18T13:54:05.683Z,99.90
2023-03-18T13:56:44.411Z,99.90
2023-03-18T13:59:30.003Z,99.90
2023-03-18T14:02:00.182Z,99.90
2023-03-18T14:04:47.243Z,99.90
2023-03-18T14:07:17.111Z,99.90
2023-03-18T14:09:51.513Z,99.90
2023-03-18T14:12:18.795Z,99.90
2023-03-18T14:14:54.814Z,99.90
2023-03-18T14:17:22.873Z,99.90
2023-03-18T14:19:53.064Z,99.90
2023-03-18T14:22:25.931Z,99.90
2023-03-18T14:25:11.440Z,99.90
2023-03-18T14:27:53.397Z,99.90
2023-03-18T14:30:32.239Z,99.90
2023-03-18T14:33:06.198Z,99.90
2023-03-18T14:35:34.310Z,99.90
2023-03-18T14:38:03.753Z,99.90
2023-03-18T14:40:34.668Z,99.90
2023-03-18T14:43:03.544Z,99.90
2023-03-18T14:45:35.484Z,99.90
2023-03-18T14:48:11.980Z,99.90
2023-03-18T14:50:44.446Z,99.90
2023-03-18T14:53:23.515Z,99.90
2023-03-18T14:55:56.496Z,99.90
2023-03-18T14:58:23.844Z,99.90
2023-03-18T15:00:54.850Z,99.90
2023-03-18T15:03:25.486Z,99.90
2023-03-18T15:05:55.473Z,99.90
2023-03-18T15:08:26.351Z,99.90
2023-03-18T15:10:55.036Z,99.90
2023-03-18T15:13:22.914Z,99.90
2023-03-18T15:15:50.387Z,99.90
2023-03-18T15:18:24.408Z,99.90
2023-03-18T15:20:52.989Z,99.90
2023-03-18T15:23:24.731Z,99.90
2023-03-18T15:25:52.794Z,99.90
2023-03-18T15:28:21.282Z,99.90
2023-03-18T15:30:55.694Z,99.90
2023-03-18T15:33:24.067Z,99.90
2023-03-18T15:35:54.440Z,99.90
2023-03-18T15:38:25.624Z,99.90
2023-03-18T15:40:54.775Z,99.90
2023-03-18T15:43:29.463Z,99.90
2023-03-18T15:45:57.470Z,99.90
2023-03-18T15:48:30.768Z,99.90
2023-03-18T15:50:59.949Z,99.90
2023-03-18T15:53:28.126Z,99.90
2023-03-18T15:55:55.574Z,99.90
2023-03-18T15:58:24.256Z,99.90
2023-03-18T16:00:52.494Z,99.90
2023-03-18T16:03:26.436Z,99.90
2023-03-18T16:05:53.550Z,99.90
2023-03-18T16:08:21.292Z,99.90
2023-03-18T16:10:49.878Z,99.90
2023-03-18T16:13:19.487Z,99.90
2023-03-18T16:15:46.134Z,99.90
2023-03-18T16:18:12.858Z,99.90
2023-03-18T16:20:41.548Z,99.90
2023-03-18T16:23:09.913Z,99.90
2023-03-18T16:25:37.288Z,99.90
2023-03-18T16:28:03.983Z,99.90
2023-03-18T16:30:31.696Z,99.90
2023-03-18T16:32:58.708Z,99.90
2023-03-18T16:35:26.613Z,99.90
2023-03-18T16:37:53.483Z,99.90
2023-03-18T16:40:22.004Z,99.90
2023-03-18T16:42:49.030Z,99.90
2023-03-18T16:45:19.886Z,99.90
2023-03-18T16:47:48.226Z,99.90
2023-03-18T16:50:17.274Z,99.90
2023-03-18T16:52:44.585Z,99.90
2023-03-18T16:55:12.031Z,99.90
2023-03-18T16:57:38.833Z,99.90
2023-03-18T17:00:13.515Z,99.90
2023-03-18T17:02:40.563Z,99.90
2023-03-18T17:05:08.956Z,99.90
2023-03-18T17:07:36.955Z,99.90
2023-03-18T17:10:04.193Z,99.90
2023-03-18T17:12:30.851Z,99.90
2023-03-18T17:14:57.672Z,99.90
2023-03-18T17:17:24.523Z,99.90
2023-03-18T17:19:51.101Z,99.90
2023-03-18T17:22:22.003Z,99.90
2023-03-18T17:24:49.126Z,99.90
2023-03-18T17:27:23.749Z,99.90
2023-03-18T17:29:50.685Z,99.90
2023-03-18T17:32:19.354Z,99.90
2023-03-18T17:34:46.714Z,99.90
2023-03-18T17:37:13.341Z,99.90
2023-03-18T17:39:40.652Z,99.90
2023-03-18T17:42:14.027Z,99.90
2023-03-18T17:44:41.224Z,99.90
2023-03-18T17:47:08.769Z,99.90
2023-03-18T17:49:35.313Z,99.90
2023-03-18T17:52:01.816Z,99.90
2023-03-18T17:54:31.442Z,99.90
2023-03-18T17:56:58.268Z,99.90
2023-03-18T17:59:24.761Z,99.90
2023-03-18T18:01:52.444Z,99.90
2023-03-18T18:04:20.589Z,99.90
2023-03-18T18:06:48.798Z,99.90
2023-03-18T18:09:16.481Z,99.90
2023-03-18T18:14:40.542Z,99.90
2023-03-18T18:17:12.512Z,99.90
2023-03-18T18:19:39.055Z,99.90
2023-03-18T18:22:06.852Z,99.90
2023-03-18T18:24:33.457Z,99.90
2023-03-18T18:27:00.110Z,99.90
2023-03-18T18:29:28.177Z,99.90
2023-03-18T18:31:55.097Z,99.90
2023-03-18T18:34:21.625Z,99.90
2023-03-18T18:36:48.686Z,99.90
2023-03-18T18:39:15.307Z,99.90
2023-03-18T18:41:41.834Z,99.90
2023-03-18T18:44:19.159Z,99.90
2023-03-18T18:46:46.126Z,99.90
2023-03-18T18:49:22.237Z,99.90
2023-03-18T18:51:54.565Z,99.90
2023-03-18T18:54:21.742Z,99.90
2023-03-18T18:56:49.499Z,99.90
2023-03-18T18:59:23.015Z,99.90
2023-03-18T19:01:50.767Z,99.90
2023-03-18T19:04:18.457Z,99.90
2023-03-18T19:06:51.620Z,99.90
2023-03-18T19:09:19.691Z,99.90
2023-03-18T19:11:46.694Z,99.90
2023-03-18T19:14:28.064Z,99.90
2023-03-18T19:16:56.445Z,99.90
2023-03-18T19:19:28.048Z,99.90
2023-03-18T19:21:54.992Z,99.90
2023-03-18T19:24:31.821Z,99.90
2023-03-18T19:27:15.492Z,99.90
2023-03-18T19:29:42.332Z,99.90
2023-03-18T19:32:16.608Z,99.90
2023-03-18T19:34:43.155Z,99.90
2023-03-18T19:37:15.362Z,99.90
2023-03-18T19:39:42.813Z,99.90
2023-03-18T19:42:12.512Z,99.90
2023-03-18T19:44:39.153Z,99.90
2023-03-18T19:47:05.956Z,99.90
2023-03-18T19:49:35.032Z,99.90
2023-03-18T19:52:03.260Z,99.90
2023-03-18T19:54:34.480Z,99.90
2023-03-18T19:57:05.630Z,99.90
2023-03-18T19:59:38.759Z,99.90
2023-03-18T20:02:23.024Z,99.90
2023-03-18T20:04:50.619Z,99.90
2023-03-18T20:07:21.473Z,99.90
2023-03-18T20:09:48.225Z,99.90
2023-03-18T20:12:19.800Z,99.90
2023-03-18T20:14:46.907Z,99.90
2023-03-18T20:17:19.347Z,99.90
2023-03-18T20:19:47.515Z,99.90
2023-03-18T20:22:19.365Z,99.90
2023-03-18T20:24:46.698Z,99.90
2023-03-18T20:27:13.318Z,99.90
2023-03-18T20:29:39.929Z,99.90
2023-03-18T20:32:06.528Z,99.90
2023-03-18T20:34:38.035Z,99.90
2023-03-18T20:37:07.211Z,99.90
2023-03-18T20:39:33.791Z,99.90
2023-03-18T20:42:00.499Z,99.90
2023-03-18T20:44:27.187Z,99.90
2023-03-18T20:46:53.810Z,99.90
2023-03-18T20:49:20.451Z,99.90
2023-03-18T20:51:47.074Z,99.90
2023-03-18T20:54:18.626Z,99.90
2023-03-18T20:56:46.477Z,99.90
2023-03-18T20:59:13.629Z,99.90
2023-03-18T21:01:40.517Z,99.90
2023-03-18T21:04:07.575Z,99.90
2023-03-18T21:06:34.150Z,99.90
2023-03-18T21:09:01.694Z,99.90
2023-03-18T21:11:30.068Z,99.90
2023-03-18T21:13:56.581Z,99.90
2023-03-18T21:16:23.839Z,99.90
2023-03-18T21:18:50.607Z,99.90
2023-03-18T21:21:31.005Z,99.90
2023-03-18T21:23:57.765Z,99.90
2023-03-18T21:26:24.425Z,99.90
2023-03-18T21:28:52.575Z,99.90
2023-03-18T21:31:19.549Z,99.90
2023-03-18T21:33:46.608Z,99.90
2023-03-18T21:36:13.163Z,99.90
2023-03-18T21:38:39.783Z,99.90
2023-03-18T21:41:15.416Z,99.90
2023-03-18T21:43:41.949Z,99.90
2023-03-18T21:46:13.195Z,99.90
2023-03-18T21:48:40.094Z,99.90
2023-03-18T21:51:07.392Z,99.90
2023-03-18T21:53:33.896Z,99.90
2023-03-18T21:56:00.430Z,99.90
2023-03-18T21:58:27.239Z,99.90
2023-03-18T22:00:54.867Z,99.90
2023-03-18T22:03:22.866Z,99.90
2023-03-18T22:05:51.491Z,99.90
2023-03-18T22:08:18.487Z,99.90
2023-03-18T22:10:45.848Z,99.90
2023-03-18T22:13:18.053Z,99.90
2023-03-18T22:15:45.995Z,99.90
2023-03-18T22:18:12.866Z,99.90
2023-03-18T22:20:39.472Z,99.90
2023-03-18T22:23:11.835Z,99.90
2023-03-18T22:25:38.946Z,99.90
2023-03-18T22:28:05.581Z,99.90
2023-03-18T22:30:33.079Z,99.90
2023-03-18T22:33:01.031Z,99.90
2023-03-18T22:35:28.718Z,99.90
2023-03-18T22:37:56.207Z,99.90
2023-03-18T22:40:28.221Z,99.90
2023-03-18T22:42:55.913Z,99.90
2023-03-18T22:45:22.537Z,99.90
2023-03-18T22:47:50.176Z,99.90
2023-03-18T22:50:18.081Z,99.90
2023-03-18T22:52:44.929Z,99.90
2023-03-18T22:55:16.324Z,99.90
2023-03-18T22:57:42.827Z,99.90
2023-03-18T23:03:32.174Z,99.90
2023-03-18T23:05:59.135Z,99.90
2023-03-18T23:08:25.811Z,99.90
2023-03-18T23:10:52.936Z,99.90
2023-03-18T23:13:29.905Z,99.90
2023-03-18T23:15:57.963Z,99.90
2023-03-18T23:18:31.629Z,99.90
2023-03-18T23:20:58.499Z,99.90
2023-03-18T23:23:25.031Z,99.90
2023-03-18T23:25:52.428Z,99.90
2023-03-18T23:28:19.221Z,99.90
2023-03-18T23:30:50.459Z,99.90
2023-03-18T23:33:17.391Z,99.90
2023-03-18T23:35:44.704Z,99.90
2023-03-18T23:38:11.380Z,99.90
2023-03-18T23:40:38.272Z,99.90
2023-03-18T23:43:04.946Z,99.90
2023-03-18T23:45:32.514Z,99.90
2023-03-18T23:47:59.263Z,99.90
2023-03-18T23:50:26.925Z,99.90
2023-03-18T23:52:53.565Z,99.90
2023-03-18T23:55:33.572Z,99.90
2023-03-18T23:58:01.281Z,99.90
